sensor_id;sensor_type;location;lat;lon;timestamp;pressure;altitude;pressure_sealevel;temperature;humidity
74529;BME280;63009;52.584;5.932;2022-12-18T00:01:47;103020.94;;;-4.18;99.86
74529;BME280;63009;52.584;5.932;2022-12-18T00:04:23;103010.69;;;-4.16;99.76
74529;BME280;63009;52.584;5.932;2022-12-18T00:06:49;103013.00;;;-4.23;99.99
74529;BME280;63009;52.584;5.932;2022-12-18T00:09:15;103012.22;;;-4.22;100.00
74529;BME280;63009;52.584;5.932;2022-12-18T00:11:41;103013.22;;;-4.18;100.00
74529;BME280;63009;52.584;5.932;2022-12-18T00:14:06;103005.28;;;-4.23;99.82
74529;BME280;63009;52.584;5.932;2022-12-18T00:16:31;103003.41;;;-4.27;99.69
74529;BME280;63009;52.584;5.932;2022-12-18T00:18:58;102999.19;;;-4.25;99.90
74529;BME280;63009;52.584;5.932;2022-12-18T00:21:25;103002.53;;;-4.27;99.87
74529;BME280;63009;52.584;5.932;2022-12-18T00:23:50;102985.94;;;-4.34;100.00
74529;BME280;63009;52.584;5.932;2022-12-18T00:26:21;102996.22;;;-4.35;100.00
74529;BME280;63009;52.584;5.932;2022-12-18T00:28:48;102975.28;;;-4.43;99.86
74529;BME280;63009;52.584;5.932;2022-12-18T00:31:16;102981.47;;;-4.38;100.00
74529;BME280;63009;52.584;5.932;2022-12-18T00:33:42;102973.69;;;-4.39;100.00
74529;BME280;63009;52.584;5.932;2022-12-18T00:36:13;102979.78;;;-4.37;100.00
74529;BME280;63009;52.584;5.932;2022-12-18T00:38:39;102980.59;;;-4.38;99.88
74529;BME280;63009;52.584;5.932;2022-12-18T00:41:05;102972.47;;;-4.49;99.67
74529;BME280;63009;52.584;5.932;2022-12-18T00:43:31;102987.25;;;-4.45;99.77
74529;BME280;63009;52.584;5.932;2022-12-18T00:45:56;102999.97;;;-4.50;99.56
74529;BME280;63009;52.584;5.932;2022-12-18T00:48:22;102997.22;;;-4.54;99.80
74529;BME280;63009;52.584;5.932;2022-12-18T00:50:49;103000.44;;;-4.60;99.81
74529;BME280;63009;52.584;5.932;2022-12-18T00:53:15;102994.41;;;-4.60;99.55
74529;BME280;63009;52.584;5.932;2022-12-18T00:55:42;102987.44;;;-4.63;99.39
74529;BME280;63009;52.584;5.932;2022-12-18T00:58:08;102991.56;;;-4.66;98.85
74529;BME280;63009;52.584;5.932;2022-12-18T01:00:34;102974.94;;;-4.74;99.24
74529;BME280;63009;52.584;5.932;2022-12-18T01:02:59;102986.09;;;-4.75;99.24
74529;BME280;63009;52.584;5.932;2022-12-18T01:05:25;102990.03;;;-4.84;99.14
74529;BME280;63009;52.584;5.932;2022-12-18T01:07:50;102992.50;;;-4.87;98.53
74529;BME280;63009;52.584;5.932;2022-12-18T01:10:16;102986.94;;;-4.97;98.41
74529;BME280;63009;52.584;5.932;2022-12-18T01:12:41;102979.06;;;-5.00;98.18
74529;BME280;63009;52.584;5.932;2022-12-18T01:15:07;102991.03;;;-5.02;98.24
74529;BME280;63009;52.584;5.932;2022-12-18T01:17:33;102988.41;;;-5.04;98.22
74529;BME280;63009;52.584;5.932;2022-12-18T01:19:58;102978.84;;;-5.06;98.00
74529;BME280;63009;52.584;5.932;2022-12-18T01:22:24;102970.72;;;-5.16;98.46
74529;BME280;63009;52.584;5.932;2022-12-18T01:24:49;102969.75;;;-5.19;98.45
74529;BME280;63009;52.584;5.932;2022-12-18T01:27:15;102970.41;;;-5.23;98.60
74529;BME280;63009;52.584;5.932;2022-12-18T01:29:40;102973.88;;;-5.23;98.62
74529;BME280;63009;52.584;5.932;2022-12-18T01:32:05;102982.34;;;-5.25;98.33
74529;BME280;63009;52.584;5.932;2022-12-18T01:34:30;102985.69;;;-5.28;98.06
74529;BME280;63009;52.584;5.932;2022-12-18T01:36:56;102967.97;;;-5.41;98.07
74529;BME280;63009;52.584;5.932;2022-12-18T01:39:21;102986.94;;;-5.39;98.06
74529;BME280;63009;52.584;5.932;2022-12-18T01:41:47;102989.72;;;-5.34;98.19
74529;BME280;63009;52.584;5.932;2022-12-18T01:47:21;102994.72;;;-5.58;97.93
74529;BME280;63009;52.584;5.932;2022-12-18T01:49:47;102992.03;;;-5.61;98.86
74529;BME280;63009;52.584;5.932;2022-12-18T01:52:14;103009.31;;;-5.59;99.26
74529;BME280;63009;52.584;5.932;2022-12-18T01:54:40;102999.69;;;-5.63;99.59
74529;BME280;63009;52.584;5.932;2022-12-18T01:57:05;103008.31;;;-5.62;99.62
74529;BME280;63009;52.584;5.932;2022-12-18T01:59:32;103007.63;;;-5.58;99.16
74529;BME280;63009;52.584;5.932;2022-12-18T02:01:59;102994.63;;;-5.61;99.61
74529;BME280;63009;52.584;5.932;2022-12-18T02:04:26;103012.75;;;-5.58;99.59
74529;BME280;63009;52.584;5.932;2022-12-18T02:07:00;103022.94;;;-5.61;99.13
74529;BME280;63009;52.584;5.932;2022-12-18T02:09:32;103015.06;;;-5.64;99.20
74529;BME280;63009;52.584;5.932;2022-12-18T02:12:16;103007.78;;;-5.75;99.26
74529;BME280;63009;52.584;5.932;2022-12-18T02:23:01;103014.81;;;-5.71;99.03
74529;BME280;63009;52.584;5.932;2022-12-18T02:25:40;103019.97;;;-5.71;98.49
74529;BME280;63009;52.584;5.932;2022-12-18T02:28:12;103013.00;;;-5.73;98.58
74529;BME280;63009;52.584;5.932;2022-12-18T02:30:40;103014.56;;;-5.77;98.97
74529;BME280;63009;52.584;5.932;2022-12-18T02:33:08;103021.38;;;-5.77;98.63
74529;BME280;63009;52.584;5.932;2022-12-18T02:35:36;103017.84;;;-5.79;98.62
74529;BME280;63009;52.584;5.932;2022-12-18T02:38:03;103028.56;;;-5.70;98.39
74529;BME280;63009;52.584;5.932;2022-12-18T02:40:30;103017.13;;;-5.77;98.57
74529;BME280;63009;52.584;5.932;2022-12-18T02:43:06;103009.31;;;-5.78;98.15
74529;BME280;63009;52.584;5.932;2022-12-18T02:45:32;103022.19;;;-5.78;98.38
74529;BME280;63009;52.584;5.932;2022-12-18T02:47:57;103008.31;;;-5.82;97.92
74529;BME280;63009;52.584;5.932;2022-12-18T02:50:31;103000.28;;;-5.89;97.91
74529;BME280;63009;52.584;5.932;2022-12-18T02:53:24;102995.19;;;-5.88;98.20
74529;BME280;63009;52.584;5.932;2022-12-18T02:55:58;102997.66;;;-5.91;97.99
74529;BME280;63009;52.584;5.932;2022-12-18T03:03:41;102982.50;;;-6.04;97.87
74529;BME280;63009;52.584;5.932;2022-12-18T03:06:13;102971.31;;;-6.05;98.40
74529;BME280;63009;52.584;5.932;2022-12-18T03:08:46;102966.72;;;-6.12;97.73
74529;BME280;63009;52.584;5.932;2022-12-18T03:11:13;102972.47;;;-6.17;97.91
74529;BME280;63009;52.584;5.932;2022-12-18T03:13:44;102977.75;;;-6.14;98.32
74529;BME280;63009;52.584;5.932;2022-12-18T03:16:15;102993.38;;;-6.10;98.57
74529;BME280;63009;52.584;5.932;2022-12-18T03:18:47;102995.00;;;-6.12;98.57
74529;BME280;63009;52.584;5.932;2022-12-18T03:21:15;102990.31;;;-6.20;98.45
74529;BME280;63009;52.584;5.932;2022-12-18T03:23:46;102992.25;;;-6.16;98.38
74529;BME280;63009;52.584;5.932;2022-12-18T03:26:16;102987.91;;;-6.17;98.30
74529;BME280;63009;52.584;5.932;2022-12-18T03:28:46;102972.31;;;-6.20;97.92
74529;BME280;63009;52.584;5.932;2022-12-18T03:31:14;102993.94;;;-6.17;97.61
74529;BME280;63009;52.584;5.932;2022-12-18T03:33:56;102993.00;;;-6.19;98.16
74529;BME280;63009;52.584;5.932;2022-12-18T03:36:23;102987.75;;;-6.20;97.67
74529;BME280;63009;52.584;5.932;2022-12-18T03:38:48;102977.28;;;-6.25;97.63
74529;BME280;63009;52.584;5.932;2022-12-18T03:41:32;102975.50;;;-6.26;97.91
74529;BME280;63009;52.584;5.932;2022-12-18T03:47:09;102969.41;;;-6.28;97.73
74529;BME280;63009;52.584;5.932;2022-12-18T03:49:45;102979.66;;;-6.30;97.55
74529;BME280;63009;52.584;5.932;2022-12-18T03:54:44;102959.53;;;-6.38;98.01
74529;BME280;63009;52.584;5.932;2022-12-18T03:57:18;102954.38;;;-6.38;97.72
74529;BME280;63009;52.584;5.932;2022-12-18T03:59:47;102955.00;;;-6.44;97.32
74529;BME280;63009;52.584;5.932;2022-12-18T04:02:17;102960.88;;;-6.46;97.28
74529;BME280;63009;52.584;5.932;2022-12-18T04:04:43;102956.47;;;-6.49;97.10
74529;BME280;63009;52.584;5.932;2022-12-18T04:07:09;102951.81;;;-6.57;97.29
74529;BME280;63009;52.584;5.932;2022-12-18T04:09:35;102947.47;;;-6.59;97.18
74529;BME280;63009;52.584;5.932;2022-12-18T04:12:02;102947.41;;;-6.60;97.39
74529;BME280;63009;52.584;5.932;2022-12-18T04:14:27;102949.97;;;-6.60;96.76
74529;BME280;63009;52.584;5.932;2022-12-18T04:16:52;102950.09;;;-6.57;97.28
74529;BME280;63009;52.584;5.932;2022-12-18T04:19:18;102935.13;;;-6.66;97.08
74529;BME280;63009;52.584;5.932;2022-12-18T04:21:43;102934.94;;;-6.70;96.87
74529;BME280;63009;52.584;5.932;2022-12-18T04:24:08;102952.31;;;-6.65;96.32
74529;BME280;63009;52.584;5.932;2022-12-18T04:26:34;102947.03;;;-6.68;96.56
74529;BME280;63009;52.584;5.932;2022-12-18T04:28:59;102946.09;;;-6.70;96.56
74529;BME280;63009;52.584;5.932;2022-12-18T04:31:25;102959.91;;;-6.68;96.42
74529;BME280;63009;52.584;5.932;2022-12-18T04:33:50;102950.44;;;-6.69;96.96
74529;BME280;63009;52.584;5.932;2022-12-18T04:36:15;102952.94;;;-6.70;96.70
74529;BME280;63009;52.584;5.932;2022-12-18T04:38:41;102954.63;;;-6.71;96.24
74529;BME280;63009;52.584;5.932;2022-12-18T04:41:06;102951.03;;;-6.74;96.53
74529;BME280;63009;52.584;5.932;2022-12-18T04:43:31;102949.41;;;-6.72;96.68
74529;BME280;63009;52.584;5.932;2022-12-18T04:46:02;102949.34;;;-6.74;96.44
74529;BME280;63009;52.584;5.932;2022-12-18T04:48:27;102956.19;;;-6.74;96.65
74529;BME280;63009;52.584;5.932;2022-12-18T04:50:53;102944.72;;;-6.81;96.46
74529;BME280;63009;52.584;5.932;2022-12-18T04:53:18;102960.19;;;-6.79;96.38
74529;BME280;63009;52.584;5.932;2022-12-18T04:55:43;102958.25;;;-6.85;96.41
74529;BME280;63009;52.584;5.932;2022-12-18T04:58:08;102961.75;;;-6.83;96.85
74529;BME280;63009;52.584;5.932;2022-12-18T05:00:34;102939.06;;;-6.92;96.82
74529;BME280;63009;52.584;5.932;2022-12-18T05:03:01;102942.63;;;-6.90;96.20
74529;BME280;63009;52.584;5.932;2022-12-18T05:05:26;102954.66;;;-6.89;95.94
74529;BME280;63009;52.584;5.932;2022-12-18T05:07:52;102954.56;;;-6.90;96.86
74529;BME280;63009;52.584;5.932;2022-12-18T05:10:17;102953.69;;;-6.91;96.48
74529;BME280;63009;52.584;5.932;2022-12-18T05:12:42;102961.50;;;-6.89;96.00
74529;BME280;63009;52.584;5.932;2022-12-18T05:15:26;102963.06;;;-6.91;96.42
74529;BME280;63009;52.584;5.932;2022-12-18T05:17:51;102972.34;;;-6.95;96.23
74529;BME280;63009;52.584;5.932;2022-12-18T05:20:17;102974.41;;;-6.88;96.11
74529;BME280;63009;52.584;5.932;2022-12-18T05:22:43;102966.31;;;-6.95;95.79
74529;BME280;63009;52.584;5.932;2022-12-18T05:25:08;102978.66;;;-6.88;95.90
74529;BME280;63009;52.584;5.932;2022-12-18T05:27:34;102976.09;;;-6.88;96.47
74529;BME280;63009;52.584;5.932;2022-12-18T05:29:59;102986.31;;;-6.90;96.39
74529;BME280;63009;52.584;5.932;2022-12-18T05:32:24;103001.88;;;-6.86;95.97
74529;BME280;63009;52.584;5.932;2022-12-18T05:34:50;103002.00;;;-6.83;96.60
74529;BME280;63009;52.584;5.932;2022-12-18T05:37:15;102998.63;;;-6.82;96.59
74529;BME280;63009;52.584;5.932;2022-12-18T05:39:40;102995.91;;;-6.85;96.39
74529;BME280;63009;52.584;5.932;2022-12-18T05:42:05;102998.50;;;-6.85;96.07
74529;BME280;63009;52.584;5.932;2022-12-18T05:44:31;102993.34;;;-6.85;96.17
74529;BME280;63009;52.584;5.932;2022-12-18T05:46:56;102985.56;;;-6.87;96.26
74529;BME280;63009;52.584;5.932;2022-12-18T05:49:21;103009.72;;;-6.83;96.17
74529;BME280;63009;52.584;5.932;2022-12-18T05:51:46;103000.25;;;-6.84;96.17
74529;BME280;63009;52.584;5.932;2022-12-18T05:54:12;103004.44;;;-6.86;96.81
74529;BME280;63009;52.584;5.932;2022-12-18T05:56:37;103008.16;;;-6.80;96.70
74529;BME280;63009;52.584;5.932;2022-12-18T05:59:02;102999.56;;;-6.80;96.25
74529;BME280;63009;52.584;5.932;2022-12-18T06:01:27;102990.09;;;-6.81;96.22
74529;BME280;63009;52.584;5.932;2022-12-18T06:03:53;102995.44;;;-6.77;95.65
74529;BME280;63009;52.584;5.932;2022-12-18T06:06:24;102992.88;;;-6.77;96.08
74529;BME280;63009;52.584;5.932;2022-12-18T06:08:51;102996.25;;;-6.78;95.64
74529;BME280;63009;52.584;5.932;2022-12-18T06:11:22;102985.63;;;-6.85;95.93
74529;BME280;63009;52.584;5.932;2022-12-18T06:13:50;102996.25;;;-6.78;95.95
74529;BME280;63009;52.584;5.932;2022-12-18T06:16:16;102988.34;;;-6.82;95.52
74529;BME280;63009;52.584;5.932;2022-12-18T06:18:41;102990.25;;;-6.78;96.01
74529;BME280;63009;52.584;5.932;2022-12-18T06:21:07;102998.69;;;-6.81;95.88
74529;BME280;63009;52.584;5.932;2022-12-18T06:23:32;102979.75;;;-6.83;96.12
74529;BME280;63009;52.584;5.932;2022-12-18T06:25:58;102974.34;;;-6.89;95.57
74529;BME280;63009;52.584;5.932;2022-12-18T06:28:24;102971.16;;;-6.83;95.46
74529;BME280;63009;52.584;5.932;2022-12-18T06:30:49;102972.91;;;-6.82;95.66
74529;BME280;63009;52.584;5.932;2022-12-18T06:33:15;102977.44;;;-6.77;95.80
74529;BME280;63009;52.584;5.932;2022-12-18T06:35:41;102970.47;;;-6.79;95.51
74529;BME280;63009;52.584;5.932;2022-12-18T06:38:06;102956.63;;;-6.83;95.33
74529;BME280;63009;52.584;5.932;2022-12-18T06:40:32;102954.25;;;-6.78;95.62
74529;BME280;63009;52.584;5.932;2022-12-18T06:42:57;102944.03;;;-6.77;95.16
74529;BME280;63009;52.584;5.932;2022-12-18T06:45:22;102944.91;;;-6.76;95.20
74529;BME280;63009;52.584;5.932;2022-12-18T06:47:48;102937.06;;;-6.79;94.74
74529;BME280;63009;52.584;5.932;2022-12-18T06:50:13;102946.47;;;-6.80;94.68
74529;BME280;63009;52.584;5.932;2022-12-18T06:52:39;102947.16;;;-6.84;94.82
74529;BME280;63009;52.584;5.932;2022-12-18T06:55:08;102949.72;;;-6.84;95.69
74529;BME280;63009;52.584;5.932;2022-12-18T06:57:34;102936.78;;;-6.85;95.11
74529;BME280;63009;52.584;5.932;2022-12-18T06:59:59;102937.53;;;-6.88;95.41
74529;BME280;63009;52.584;5.932;2022-12-18T07:02:25;102929.91;;;-6.86;95.92
74529;BME280;63009;52.584;5.932;2022-12-18T07:04:50;102922.19;;;-6.86;95.96
74529;BME280;63009;52.584;5.932;2022-12-18T07:07:16;102928.22;;;-6.86;95.98
74529;BME280;63009;52.584;5.932;2022-12-18T07:09:41;102922.84;;;-6.91;95.93
74529;BME280;63009;52.584;5.932;2022-12-18T07:12:06;102912.22;;;-6.98;95.52
74529;BME280;63009;52.584;5.932;2022-12-18T07:14:32;102927.19;;;-6.90;95.99
74529;BME280;63009;52.584;5.932;2022-12-18T07:16:58;102926.38;;;-6.89;95.46
74529;BME280;63009;52.584;5.932;2022-12-18T07:19:23;102930.03;;;-6.83;95.42
74529;BME280;63009;52.584;5.932;2022-12-18T07:21:50;102930.72;;;-6.88;95.46
74529;BME280;63009;52.584;5.932;2022-12-18T07:24:15;102935.19;;;-6.83;95.56
74529;BME280;63009;52.584;5.932;2022-12-18T07:26:40;102933.03;;;-6.92;94.98
74529;BME280;63009;52.584;5.932;2022-12-18T07:29:06;102940.75;;;-6.92;95.11
74529;BME280;63009;52.584;5.932;2022-12-18T07:31:31;102932.97;;;-6.94;95.48
74529;BME280;63009;52.584;5.932;2022-12-18T07:33:56;102937.63;;;-6.86;95.40
74529;BME280;63009;52.584;5.932;2022-12-18T07:36:25;102919.31;;;-6.93;95.27
74529;BME280;63009;52.584;5.932;2022-12-18T07:38:50;102919.47;;;-6.90;95.59
74529;BME280;63009;52.584;5.932;2022-12-18T07:41:17;102926.28;;;-6.90;95.21
74529;BME280;63009;52.584;5.932;2022-12-18T07:43:44;102925.50;;;-6.89;96.06
74529;BME280;63009;52.584;5.932;2022-12-18T07:46:09;102936.78;;;-6.85;95.40
74529;BME280;63009;52.584;5.932;2022-12-18T07:48:35;102943.56;;;-6.88;95.04
74529;BME280;63009;52.584;5.932;2022-12-18T07:51:02;102922.94;;;-6.89;95.16
74529;BME280;63009;52.584;5.932;2022-12-18T07:53:29;102917.94;;;-6.86;95.25
74529;BME280;63009;52.584;5.932;2022-12-18T07:56:02;102926.72;;;-6.81;94.99
74529;BME280;63009;52.584;5.932;2022-12-18T07:58:29;102915.34;;;-6.86;95.07
74529;BME280;63009;52.584;5.932;2022-12-18T08:00:54;102923.41;;;-6.78;95.83
74529;BME280;63009;52.584;5.932;2022-12-18T08:03:26;102903.53;;;-6.82;95.25
74529;BME280;63009;52.584;5.932;2022-12-18T08:05:52;102903.00;;;-6.75;95.96
74529;BME280;63009;52.584;5.932;2022-12-18T08:08:17;102891.97;;;-6.73;96.18
74529;BME280;63009;52.584;5.932;2022-12-18T08:10:42;102897.38;;;-6.67;95.86
74529;BME280;63009;52.584;5.932;2022-12-18T08:13:07;102890.91;;;-6.59;95.72
74529;BME280;63009;52.584;5.932;2022-12-18T08:15:33;102893.84;;;-6.49;95.53
74529;BME280;63009;52.584;5.932;2022-12-18T08:17:58;102877.72;;;-6.47;95.50
74529;BME280;63009;52.584;5.932;2022-12-18T08:20:23;102872.19;;;-6.35;95.04
74529;BME280;63009;52.584;5.932;2022-12-18T08:22:48;102886.16;;;-6.30;95.44
74529;BME280;63009;52.584;5.932;2022-12-18T08:25:14;102879.31;;;-6.30;95.05
74529;BME280;63009;52.584;5.932;2022-12-18T08:27:39;102876.09;;;-6.24;95.11
74529;BME280;63009;52.584;5.932;2022-12-18T08:30:05;102876.56;;;-6.13;94.59
74529;BME280;63009;52.584;5.932;2022-12-18T08:32:31;102860.38;;;-6.11;94.46
74529;BME280;63009;52.584;5.932;2022-12-18T08:34:58;102880.56;;;-6.01;94.60
74529;BME280;63009;52.584;5.932;2022-12-18T08:37:23;102879.84;;;-5.96;94.23
74529;BME280;63009;52.584;5.932;2022-12-18T08:39:49;102868.69;;;-5.97;94.13
74529;BME280;63009;52.584;5.932;2022-12-18T08:42:14;102869.03;;;-5.88;93.34
74529;BME280;63009;52.584;5.932;2022-12-18T08:44:58;102894.41;;;-5.76;93.67
74529;BME280;63009;52.584;5.932;2022-12-18T08:47:23;102879.09;;;-5.73;93.24
74529;BME280;63009;52.584;5.932;2022-12-18T08:49:48;102876.50;;;-5.73;93.14
74529;BME280;63009;52.584;5.932;2022-12-18T08:52:16;102883.91;;;-5.60;92.74
74529;BME280;63009;52.584;5.932;2022-12-18T08:54:42;102891.75;;;-5.57;92.40
74529;BME280;63009;52.584;5.932;2022-12-18T08:57:07;102884.59;;;-5.43;92.57
74529;BME280;63009;52.584;5.932;2022-12-18T08:59:32;102888.34;;;-5.35;92.56
74529;BME280;63009;52.584;5.932;2022-12-18T09:01:57;102889.47;;;-5.28;92.36
74529;BME280;63009;52.584;5.932;2022-12-18T09:04:23;102900.97;;;-5.20;92.19
74529;BME280;63009;52.584;5.932;2022-12-18T09:06:48;102884.53;;;-5.22;91.88
74529;BME280;63009;52.584;5.932;2022-12-18T09:09:13;102898.16;;;-5.04;91.91
74529;BME280;63009;52.584;5.932;2022-12-18T09:11:39;102886.38;;;-4.97;91.58
74529;BME280;63009;52.584;5.932;2022-12-18T09:14:05;102868.16;;;-5.02;91.47
74529;BME280;63009;52.584;5.932;2022-12-18T09:16:31;102885.13;;;-4.85;91.21
74529;BME280;63009;52.584;5.932;2022-12-18T09:18:58;102883.84;;;-4.73;90.90
74529;BME280;63009;52.584;5.932;2022-12-18T09:21:31;102878.13;;;-4.65;90.61
74529;BME280;63009;52.584;5.932;2022-12-18T09:23:57;102881.78;;;-4.60;90.80
74529;BME280;63009;52.584;5.932;2022-12-18T09:26:23;102895.72;;;-4.55;90.57
74529;BME280;63009;52.584;5.932;2022-12-18T09:28:49;102898.47;;;-4.50;90.71
74529;BME280;63009;52.584;5.932;2022-12-18T09:31:15;102890.84;;;-4.47;90.68
74529;BME280;63009;52.584;5.932;2022-12-18T09:33:41;102886.81;;;-4.39;90.78
74529;BME280;63009;52.584;5.932;2022-12-18T09:36:08;102895.72;;;-4.31;90.22
74529;BME280;63009;52.584;5.932;2022-12-18T09:38:35;102902.00;;;-4.23;89.77
74529;BME280;63009;52.584;5.932;2022-12-18T09:41:05;102909.94;;;-4.18;89.44
74529;BME280;63009;52.584;5.932;2022-12-18T09:43:46;102890.81;;;-4.23;89.33
74529;BME280;63009;52.584;5.932;2022-12-18T09:46:18;102901.56;;;-4.11;88.97
74529;BME280;63009;52.584;5.932;2022-12-18T09:48:48;102880.97;;;-4.09;88.39
74529;BME280;63009;52.584;5.932;2022-12-18T09:51:29;102868.13;;;-4.08;89.01
74529;BME280;63009;52.584;5.932;2022-12-18T09:54:25;102863.34;;;-3.96;89.05
74529;BME280;63009;52.584;5.932;2022-12-18T09:56:48;102848.81;;;-3.94;87.54
74529;BME280;63009;52.584;5.932;2022-12-18T09:59:20;102834.47;;;-3.84;87.59
74529;BME280;63009;52.584;5.932;2022-12-18T10:01:46;102825.03;;;-3.83;88.11
74529;BME280;63009;52.584;5.932;2022-12-18T10:04:11;102807.69;;;-3.88;88.19
74529;BME280;63009;52.584;5.932;2022-12-18T10:06:54;102814.88;;;-3.79;88.25
74529;BME280;63009;52.584;5.932;2022-12-18T10:12:00;102815.09;;;-3.71;88.00
74529;BME280;63009;52.584;5.932;2022-12-18T10:14:49;102807.38;;;-3.70;88.06
74529;BME280;63009;52.584;5.932;2022-12-18T10:17:38;102797.22;;;-3.65;87.76
74529;BME280;63009;52.584;5.932;2022-12-18T10:20:21;102802.44;;;-3.64;88.11
74529;BME280;63009;52.584;5.932;2022-12-18T10:22:58;102796.53;;;-3.60;87.80
74529;BME280;63009;52.584;5.932;2022-12-18T10:25:47;102796.66;;;-3.55;87.85
74529;BME280;63009;52.584;5.932;2022-12-18T10:28:15;102797.72;;;-3.48;87.26
74529;BME280;63009;52.584;5.932;2022-12-18T10:30:42;102794.34;;;-3.46;87.23
74529;BME280;63009;52.584;5.932;2022-12-18T10:33:12;102790.94;;;-3.45;87.29
74529;BME280;63009;52.584;5.932;2022-12-18T10:35:41;102798.16;;;-3.35;87.46
74529;BME280;63009;52.584;5.932;2022-12-18T10:38:20;102798.28;;;-3.30;87.44
74529;BME280;63009;52.584;5.932;2022-12-18T10:46:15;102774.69;;;-3.11;86.29
74529;BME280;63009;52.584;5.932;2022-12-18T10:51:42;102768.16;;;-2.98;86.32
74529;BME280;63009;52.584;5.932;2022-12-18T10:54:20;102759.81;;;-2.89;85.61
74529;BME280;63009;52.584;5.932;2022-12-18T10:56:47;102767.59;;;-2.88;84.44
74529;BME280;63009;52.584;5.932;2022-12-18T10:59:17;102757.47;;;-2.80;84.76
74529;BME280;63009;52.584;5.932;2022-12-18T11:01:58;102756.59;;;-2.81;85.10
74529;BME280;63009;52.584;5.932;2022-12-18T11:04:28;102752.53;;;-2.71;83.94
74529;BME280;63009;52.584;5.932;2022-12-18T11:06:59;102749.22;;;-2.67;84.73
74529;BME280;63009;52.584;5.932;2022-12-18T11:09:27;102759.72;;;-2.61;83.45
74529;BME280;63009;52.584;5.932;2022-12-18T11:11:55;102744.06;;;-2.65;84.34
74529;BME280;63009;52.584;5.932;2022-12-18T11:14:25;102758.13;;;-2.56;84.10
74529;BME280;63009;52.584;5.932;2022-12-18T11:16:52;102760.03;;;-2.49;83.81
74529;BME280;63009;52.584;5.932;2022-12-18T11:19:34;102757.25;;;-2.56;83.25
74529;BME280;63009;52.584;5.932;2022-12-18T11:22:02;102770.31;;;-2.52;84.17
74529;BME280;63009;52.584;5.932;2022-12-18T11:24:37;102774.00;;;-2.42;83.65
74529;BME280;63009;52.584;5.932;2022-12-18T11:27:16;102773.16;;;-2.41;82.49
74529;BME280;63009;52.584;5.932;2022-12-18T11:29:43;102750.81;;;-2.39;82.66
74529;BME280;63009;52.584;5.932;2022-12-18T11:34:42;102736.19;;;-2.37;83.24
74529;BME280;63009;52.584;5.932;2022-12-18T11:37:09;102729.28;;;-2.36;82.85
74529;BME280;63009;52.584;5.932;2022-12-18T11:39:42;102727.63;;;-2.34;83.15
74529;BME280;63009;52.584;5.932;2022-12-18T11:42:35;102710.31;;;-2.35;83.21
74529;BME280;63009;52.584;5.932;2022-12-18T11:50:31;102714.97;;;-2.22;83.09
74529;BME280;63009;52.584;5.932;2022-12-18T11:52:58;102715.78;;;-2.25;82.66
74529;BME280;63009;52.584;5.932;2022-12-18T12:01:39;102708.97;;;-2.20;83.07
74529;BME280;63009;52.584;5.932;2022-12-18T12:10:13;102686.91;;;-2.04;83.18
74529;BME280;63009;52.584;5.932;2022-12-18T12:12:54;102667.84;;;-2.07;82.59
74529;BME280;63009;52.584;5.932;2022-12-18T12:18:41;102634.34;;;-1.98;82.05
74529;BME280;63009;52.584;5.932;2022-12-18T12:21:40;102636.09;;;-1.97;81.79
74529;BME280;63009;52.584;5.932;2022-12-18T12:24:33;102623.00;;;-2.03;81.96
74529;BME280;63009;52.584;5.932;2022-12-18T12:27:24;102643.28;;;-1.84;82.20
74529;BME280;63009;52.584;5.932;2022-12-18T12:38:00;102628.72;;;-1.79;81.01
74529;BME280;63009;52.584;5.932;2022-12-18T12:40:30;102633.06;;;-1.78;82.01
74529;BME280;63009;52.584;5.932;2022-12-18T12:46:13;102613.28;;;-1.73;80.68
74529;BME280;63009;52.584;5.932;2022-12-18T12:48:59;102610.66;;;-1.76;81.10
74529;BME280;63009;52.584;5.932;2022-12-18T12:51:35;102600.41;;;-1.70;80.84
74529;BME280;63009;52.584;5.932;2022-12-18T12:54:05;102589.94;;;-1.74;80.83
74529;BME280;63009;52.584;5.932;2022-12-18T12:56:54;102598.69;;;-1.69;80.29
74529;BME280;63009;52.584;5.932;2022-12-18T12:59:45;102591.63;;;-1.76;79.69
74529;BME280;63009;52.584;5.932;2022-12-18T13:02:34;102587.44;;;-1.70;79.95
74529;BME280;63009;52.584;5.932;2022-12-18T13:05:10;102585.91;;;-1.60;80.89
74529;BME280;63009;52.584;5.932;2022-12-18T13:07:47;102584.09;;;-1.64;82.04
74529;BME280;63009;52.584;5.932;2022-12-18T13:15:36;102599.66;;;-1.64;82.35
74529;BME280;63009;52.584;5.932;2022-12-18T13:20:45;102597.09;;;-1.63;82.10
74529;BME280;63009;52.584;5.932;2022-12-18T13:25:49;102587.69;;;-1.58;81.28
74529;BME280;63009;52.584;5.932;2022-12-18T13:28:16;102580.75;;;-1.59;80.68
74529;BME280;63009;52.584;5.932;2022-12-18T13:30:45;102586.84;;;-1.57;81.02
74529;BME280;63009;52.584;5.932;2022-12-18T13:38:35;102553.06;;;-1.61;80.87
74529;BME280;63009;52.584;5.932;2022-12-18T13:48:34;102576.63;;;-1.49;81.06
74529;BME280;63009;52.584;5.932;2022-12-18T13:51:04;102567.13;;;-1.48;80.84
74529;BME280;63009;52.584;5.932;2022-12-18T13:53:38;102561.97;;;-1.47;81.02
74529;BME280;63009;52.584;5.932;2022-12-18T13:56:07;102549.81;;;-1.50;80.61
74529;BME280;63009;52.584;5.932;2022-12-18T13:58:32;102541.19;;;-1.48;81.53
74529;BME280;63009;52.584;5.932;2022-12-18T14:00:58;102545.53;;;-1.47;81.30
74529;BME280;63009;52.584;5.932;2022-12-18T14:03:27;102561.97;;;-1.47;81.51
74529;BME280;63009;52.584;5.932;2022-12-18T14:05:53;102574.97;;;-1.45;80.66
74529;BME280;63009;52.584;5.932;2022-12-18T14:08:20;102549.78;;;-1.53;80.83
74529;BME280;63009;52.584;5.932;2022-12-18T14:10:47;102548.06;;;-1.52;82.22
74529;BME280;63009;52.584;5.932;2022-12-18T14:15:47;102536.00;;;-1.48;81.42
74529;BME280;63009;52.584;5.932;2022-12-18T14:18:42;102536.09;;;-1.44;81.33
74529;BME280;63009;52.584;5.932;2022-12-18T14:21:18;102521.34;;;-1.48;80.41
74529;BME280;63009;52.584;5.932;2022-12-18T14:23:45;102529.13;;;-1.46;81.77
74529;BME280;63009;52.584;5.932;2022-12-18T14:26:31;102527.38;;;-1.49;82.51
74529;BME280;63009;52.584;5.932;2022-12-18T14:29:00;102501.47;;;-1.47;82.43
74529;BME280;63009;52.584;5.932;2022-12-18T14:31:29;102504.91;;;-1.48;81.95
74529;BME280;63009;52.584;5.932;2022-12-18T14:33:55;102485.81;;;-1.54;82.59